Time;durP1;ratioP1;P1;durP2;ratioP2;P2;SDS_P1;SDS_P2;PMS_P1;PMS_P2;Temp;Humidity;BMP_temperature;BMP_pressure;BME280_temperature;BME280_humidity;BME280_pressure;Samples;Min_cycle;Max_cycle;Signal;HPM_P1;HPM_P2
2022/06/09 00:01:57;;;;;;;0.30;0.30;;;14.50;99.90;;;;;;4198224;28;20053;-71
2022/06/09 00:04:06;;;;;;;1.10;0.38;;;14.50;99.90;;;;;;4196284;28;20134;-71
2022/06/09 00:06:10;;;;;;;0.30;0.30;;;14.50;99.90;;;;;;4195389;28;20068;-71
2022/06/09 00:08:12;;;;;;;0.30;0.30;;;14.50;99.90;;;;;;4199356;28;20089;-71
2022/06/09 00:10:20;;;;;;;0.95;0.63;;;14.50;99.90;;;;;;4200116;28;20092;-71
2022/06/09 00:12:23;;;;;;;2.50;0.75;;;14.50;99.90;;;;;;4200606;28;20088;-71
2022/06/09 00:14:25;;;;;;;1.30;0.40;;;14.50;99.90;;;;;;4199265;28;20794;-71
2022/06/09 00:16:26;;;;;;;0.20;0.20;;;14.50;99.90;;;;;;4199580;28;20057;-71
2022/06/09 00:18:28;;;;;;;0.55;0.32;;;14.60;99.90;;;;;;4197586;28;20053;-72
2022/06/09 00:20:30;;;;;;;0.32;0.20;;;14.60;99.90;;;;;;4199737;28;20067;-72
2022/06/09 00:22:32;;;;;;;0.20;0.20;;;14.50;99.90;;;;;;4199913;28;20065;-71
2022/06/09 00:24:34;;;;;;;0.38;0.28;;;14.60;99.90;;;;;;4200652;28;20934;-71
2022/06/09 00:26:36;;;;;;;0.30;0.30;;;14.60;99.90;;;;;;4201301;28;20061;-70
2022/06/09 00:28:38;;;;;;;0.20;0.20;;;14.60;99.90;;;;;;4199939;28;20689;-71
2022/06/09 00:30:39;;;;;;;0.20;0.20;;;14.60;99.90;;;;;;4194428;28;20057;-71
2022/06/09 00:32:42;;;;;;;0.50;0.25;;;14.50;99.90;;;;;;4199702;28;20100;-71
2022/06/09 00:34:43;;;;;;;2.75;0.55;;;14.50;99.90;;;;;;4200444;28;20175;-71
2022/06/09 00:36:45;;;;;;;0.20;0.20;;;14.60;99.90;;;;;;4200324;28;20057;-71
2022/06/09 00:38:47;;;;;;;0.30;0.30;;;14.50;99.90;;;;;;4199813;28;20061;-71
2022/06/09 00:40:48;;;;;;;1.17;0.30;;;14.50;99.90;;;;;;4197199;28;20080;-72
2022/06/09 00:42:50;;;;;;;1.38;0.63;;;14.40;99.90;;;;;;4200384;28;20096;-73
2022/06/09 00:44:52;;;;;;;0.75;0.40;;;14.40;99.90;;;;;;4200211;28;20057;-72
2022/06/09 00:47:01;;;;;;;0.45;0.30;;;14.30;99.90;;;;;;4202211;28;20053;-73
2022/06/09 00:49:15;;;;;;;1.73;0.40;;;14.10;99.90;;;;;;4198547;28;20903;-74
2022/06/09 00:51:34;;;;;;;0.93;0.40;;;13.90;99.90;;;;;;4195788;28;20122;-73
2022/06/09 00:53:40;;;;;;;0.55;0.30;;;13.80;99.90;;;;;;4196804;28;20058;-73
2022/06/09 00:55:42;;;;;;;0.30;0.30;;;13.80;99.90;;;;;;4199452;28;20056;-73
2022/06/09 00:57:58;;;;;;;1.58;0.30;;;13.80;99.90;;;;;;4199872;28;20064;-74
2022/06/09 01:00:08;;;;;;;1.83;0.30;;;13.80;99.90;;;;;;4216295;28;20092;-72
2022/06/09 01:02:13;;;;;;;1.98;0.30;;;13.80;99.90;;;;;;4201034;28;20059;-73
2022/06/09 01:04:17;;;;;;;0.63;0.30;;;13.60;99.90;;;;;;4194160;28;20061;-73
2022/06/09 01:06:23;;;;;;;1.45;0.52;;;13.60;99.90;;;;;;4199877;28;20099;-73
2022/06/09 01:08:24;;;;;;;2.00;0.47;;;13.60;99.90;;;;;;4198390;28;20152;-73
2022/06/09 01:10:29;;;;;;;0.47;0.30;;;13.60;99.90;;;;;;4199120;28;20069;-72
2022/06/09 01:12:35;;;;;;;0.30;0.30;;;13.70;99.90;;;;;;4200428;28;20060;-72
2022/06/09 01:14:37;;;;;;;1.10;0.40;;;13.70;99.90;;;;;;4200359;28;20886;-72
2022/06/09 01:17:00;;;;;;;0.80;0.30;;;13.70;99.90;;;;;;4201354;28;20603;-72
2022/06/09 01:19:17;;;;;;;0.40;0.20;;;13.80;99.90;;;;;;4194325;28;20049;-72
2022/06/09 01:21:43;;;;;;;1.95;0.30;;;13.80;99.90;;;;;;4194015;28;20088;-71
2022/06/09 01:24:18;;;;;;;2.00;0.22;;;13.80;99.90;;;;;;4192726;28;20100;-73
2022/06/09 01:26:49;;;;;;;0.40;0.20;;;13.80;99.90;;;;;;4196040;28;20092;-71
2022/06/09 01:28:53;;;;;;;1.42;0.22;;;13.70;99.90;;;;;;4196043;28;20657;-71
2022/06/09 01:31:01;;;;;;;0.22;0.22;;;13.70;99.90;;;;;;4193889;28;20061;-71
2022/06/09 01:33:14;;;;;;;1.55;0.95;;;13.70;99.90;;;;;;4198970;28;20775;-71
2022/06/09 01:36:03;;;;;;;0.47;0.20;;;13.60;99.90;;;;;;4196428;28;20815;-71
2022/06/09 01:38:05;;;;;;;3.63;0.90;;;13.60;99.90;;;;;;4185893;28;20156;-71
2022/06/09 01:40:09;;;;;;;2.55;0.57;;;13.50;99.90;;;;;;4196423;28;20942;-70
2022/06/09 01:42:21;;;;;;;1.75;1.33;;;13.40;99.90;;;;;;4196249;28;20130;-71
2022/06/09 01:44:23;;;;;;;5.95;2.97;;;13.40;99.90;;;;;;4191349;28;20891;-71
2022/06/09 01:46:34;;;;;;;2.17;1.48;;;13.40;99.90;;;;;;4196333;28;20787;-71
2022/06/09 01:48:36;;;;;;;;;;;13.40;99.90;;;;;;4198069;28;20057;-71
2022/06/09 01:50:48;;;;;;;0.80;0.60;;;13.40;99.90;;;;;;4196561;28;19929;-71
2022/06/09 01:52:51;;;;;;;4.45;1.90;;;13.30;99.90;;;;;;4194349;28;20056;-71
2022/06/09 01:54:55;;;;;;;5.57;3.20;;;13.20;99.90;;;;;;4196328;28;20811;-71
2022/06/09 01:57:03;;;;;;;1.17;0.50;;;13.10;99.90;;;;;;4192825;28;20807;-71
2022/06/09 01:59:31;;;;;;;2.25;0.70;;;13.20;99.90;;;;;;4196623;28;20599;-70
2022/06/09 02:01:41;;;;;;;1.55;0.40;;;13.20;99.90;;;;;;4188348;28;20100;-71
2022/06/09 02:03:47;;;;;;;2.13;0.60;;;13.20;99.90;;;;;;4196589;28;20061;-70
2022/06/09 02:05:53;;;;;;;4.18;0.35;;;13.20;99.90;;;;;;4205543;28;20156;-71
2022/06/09 02:07:57;;;;;;;2.15;0.50;;;13.30;99.90;;;;;;4196484;28;20068;-71
2022/06/09 02:10:27;;;;;;;0.98;0.50;;;13.30;99.90;;;;;;4196652;28;20580;-71
2022/06/09 02:12:29;;;;;;;3.08;1.00;;;13.40;99.90;;;;;;4211386;28;20257;-70
2022/06/09 02:14:32;;;;;;;1.08;0.50;;;13.30;99.90;;;;;;4196545;28;20088;-70
2022/06/09 02:16:34;;;;;;;1.08;0.55;;;13.30;99.90;;;;;;4202159;28;20076;-70
2022/06/09 02:18:39;;;;;;;0.40;0.40;;;13.30;99.90;;;;;;4194811;28;20065;-70
2022/06/09 02:20:45;;;;;;;1.95;0.60;;;13.20;99.90;;;;;;4196822;28;21352;-71
2022/06/09 02:22:46;;;;;;;2.03;0.77;;;13.10;99.90;;;;;;4193412;28;20622;-72
2022/06/09 02:24:48;;;;;;;1.65;0.70;;;13.10;99.90;;;;;;4194082;28;20061;-72
2022/06/09 02:26:50;;;;;;;9.77;0.85;;;13.00;99.90;;;;;;4193377;28;20104;-71
2022/06/09 02:28:51;;;;;;;2.05;1.00;;;12.90;99.90;;;;;;4197490;28;20765;-71
2022/06/09 02:30:53;;;;;;;1.42;1.00;;;13.00;99.90;;;;;;4198675;28;20772;-72
2022/06/09 02:32:55;;;;;;;5.38;4.93;;;12.90;99.90;;;;;;4194883;28;20160;-71
2022/06/09 02:34:56;;;;;;;2.80;0.80;;;12.90;99.90;;;;;;4198755;28;20107;-71
2022/06/09 02:36:58;;;;;;;5.47;1.67;;;12.90;99.90;;;;;;4197710;28;20255;-72
2022/06/09 02:39:00;;;;;;;1.60;1.25;;;12.90;99.90;;;;;;4199206;28;20051;-71
2022/06/09 02:41:01;;;;;;;2.17;0.90;;;12.90;99.90;;;;;;4197907;28;20848;-71
2022/06/09 02:43:03;;;;;;;1.38;1.27;;;12.90;99.90;;;;;;4198314;28;20172;-72
2022/06/09 02:45:06;;;;;;;1.50;0.68;;;12.90;99.90;;;;;;4198533;28;20141;-72
2022/06/09 02:47:08;;;;;;;5.13;0.80;;;12.90;99.90;;;;;;4198181;28;20932;-72
2022/06/09 02:49:10;;;;;;;1.90;1.00;;;13.00;99.90;;;;;;4198765;28;20057;-72
2022/06/09 02:51:27;;;;;;;1.42;0.55;;;13.00;99.90;;;;;;4197739;28;20179;-72
2022/06/09 02:53:30;;;;;;;1.02;0.80;;;13.00;99.90;;;;;;4197684;28;20099;-72
2022/06/09 02:55:32;;;;;;;0.75;0.57;;;12.90;99.90;;;;;;4198179;28;20057;-72
2022/06/09 02:57:33;;;;;;;0.80;0.60;;;12.90;99.90;;;;;;4198156;28;20179;-72
2022/06/09 02:59:35;;;;;;;1.80;0.77;;;12.90;99.90;;;;;;4198536;28;20113;-73
2022/06/09 03:01:37;;;;;;;0.95;0.88;;;12.90;99.90;;;;;;4194402;28;20103;-72
2022/06/09 03:03:39;;;;;;;1.70;0.55;;;13.00;99.90;;;;;;4198137;28;20053;-72
2022/06/09 03:05:41;;;;;;;4.07;0.57;;;13.00;99.90;;;;;;4196024;28;20782;-72
2022/06/09 03:07:42;;;;;;;2.25;0.65;;;12.90;99.90;;;;;;4198559;28;20061;-72
2022/06/09 03:09:44;;;;;;;1.55;0.50;;;12.90;99.90;;;;;;4198908;28;20164;-72
2022/06/09 03:11:46;;;;;;;1.88;0.90;;;12.80;99.90;;;;;;4197759;28;20063;-72
2022/06/09 03:13:47;;;;;;;1.05;0.95;;;12.80;99.90;;;;;;4197180;28;20091;-72
2022/06/09 03:15:50;;;;;;;1.80;0.60;;;12.90;99.90;;;;;;4195484;28;20061;-73
2022/06/09 03:17:52;;;;;;;2.72;1.10;;;12.90;99.90;;;;;;4197133;28;20057;-72
2022/06/09 03:19:53;;;;;;;1.50;0.90;;;12.90;99.90;;;;;;4198037;28;20059;-72
2022/06/09 03:21:55;;;;;;;1.35;0.77;;;13.00;99.90;;;;;;4198616;28;20073;-72
2022/06/09 03:23:58;;;;;;;3.25;0.77;;;13.00;99.90;;;;;;4196845;28;20061;-72
2022/06/09 03:26:00;;;;;;;1.95;0.57;;;13.00;99.90;;;;;;4198247;28;20148;-72
2022/06/09 03:28:01;;;;;;;1.60;0.73;;;13.00;99.90;;;;;;4194016;28;20839;-72
2022/06/09 03:30:06;;;;;;;4.03;2.38;;;13.00;99.90;;;;;;4198405;28;20883;-72
2022/06/09 03:32:08;;;;;;;5.88;3.00;;;13.00;99.90;;;;;;4198563;28;20057;-74
2022/06/09 03:34:09;;;;;;;2.58;1.23;;;13.00;99.90;;;;;;4198871;28;20783;-74
2022/06/09 03:36:11;;;;;;;2.25;0.90;;;13.00;99.90;;;;;;4196376;28;20067;-74
2022/06/09 03:38:13;;;;;;;1.40;1.10;;;12.90;99.90;;;;;;4194587;28;20127;-74
2022/06/09 03:40:18;;;;;;;2.88;1.70;;;13.00;99.90;;;;;;4197513;28;20057;-74
2022/06/09 03:42:20;;;;;;;4.25;1.65;;;13.00;99.90;;;;;;4197606;28;20611;-74
2022/06/09 03:44:22;;;;;;;4.15;2.50;;;13.00;99.90;;;;;;4197840;28;20156;-74
2022/06/09 03:46:23;;;;;;;4.38;2.03;;;13.00;99.90;;;;;;4197236;28;20049;-74
2022/06/09 03:48:25;;;;;;;4.20;2.03;;;13.00;99.90;;;;;;4198345;28;20067;-73
2022/06/09 03:50:29;;;;;;;2.72;1.50;;;12.90;99.90;;;;;;4198540;28;20057;-74
2022/06/09 03:52:32;;;;;;;2.40;1.42;;;12.90;99.90;;;;;;4195711;28;20168;-74
2022/06/09 03:54:34;;;;;;;2.17;1.30;;;12.90;99.90;;;;;;4198212;28;20056;-74
2022/06/09 03:56:35;;;;;;;3.25;1.60;;;12.90;99.90;;;;;;4197982;28;20099;-74
2022/06/09 03:58:37;;;;;;;1.75;1.52;;;12.80;99.90;;;;;;4197655;28;20053;-74
2022/06/09 04:00:39;;;;;;;2.45;1.55;;;12.80;99.90;;;;;;4198224;28;20173;-74
2022/06/09 04:02:41;;;;;;;3.10;1.50;;;12.80;99.90;;;;;;4197990;28;20064;-74
2022/06/09 04:04:42;;;;;;;2.83;1.02;;;12.80;99.90;;;;;;4197768;28;20061;-73
2022/06/09 04:06:44;;;;;;;2.60;1.55;;;12.90;99.90;;;;;;4197583;28;20061;-74
2022/06/09 04:08:48;;;;;;;2.75;1.50;;;12.80;99.90;;;;;;4197808;28;21038;-74
2022/06/09 04:10:51;;;;;;;2.20;1.10;;;12.80;99.90;;;;;;4197195;28;20150;-73
2022/06/09 04:12:53;;;;;;;1.88;1.10;;;12.90;99.90;;;;;;4194711;28;20053;-74
2022/06/09 04:14:55;;;;;;;3.30;1.25;;;12.90;99.90;;;;;;4198324;28;20088;-73
2022/06/09 04:16:57;;;;;;;1.08;0.88;;;12.90;99.90;;;;;;4197692;28;20130;-74
2022/06/09 04:19:02;;;;;;;1.30;1.10;;;13.00;99.90;;;;;;4195228;28;20894;-74
2022/06/09 04:21:04;;;;;;;5.28;1.75;;;12.90;99.90;;;;;;4198583;28;20085;-74
2022/06/09 04:23:05;;;;;;;6.30;1.17;;;13.00;99.90;;;;;;4198439;28;20057;-73
2022/06/09 04:25:09;;;;;;;3.83;1.00;;;12.90;99.90;;;;;;4198178;28;20049;-73
2022/06/09 04:27:10;;;;;;;2.50;1.15;;;12.90;99.90;;;;;;4195655;28;20057;-74
2022/06/09 04:29:13;;;;;;;6.88;1.05;;;12.90;99.90;;;;;;4195385;28;20807;-73
2022/06/09 04:31:16;;;;;;;4.65;0.98;;;12.90;99.90;;;;;;4197018;28;20061;-73
2022/06/09 04:33:17;;;;;;;4.60;1.00;;;12.90;99.90;;;;;;4197493;28;20061;-74
2022/06/09 04:35:19;;;;;;;1.17;0.90;;;12.90;99.90;;;;;;4196356;28;20930;-73
2022/06/09 04:37:59;;;;;;;2.42;0.80;;;12.90;99.90;;;;;;4197056;28;20675;-74
2022/06/09 04:39:42;;;;;;;2.38;0.70;;;12.90;99.90;;;;;;4196578;28;20053;-73
2022/06/09 04:41:44;;;;;;;1.92;0.90;;;12.80;99.90;;;;;;4195144;28;20071;-74
2022/06/09 04:43:47;;;;;;;2.25;1.00;;;12.80;99.90;;;;;;4197557;28;20057;-74
2022/06/09 04:45:49;;;;;;;2.17;0.80;;;12.80;99.90;;;;;;4197390;28;20089;-74
2022/06/09 04:47:56;;;;;;;1.65;1.05;;;12.80;99.90;;;;;;4197544;28;20795;-74
2022/06/09 04:49:57;;;;;;;2.75;1.30;;;12.80;99.90;;;;;;4194302;28;20060;-73
2022/06/09 04:51:59;;;;;;;4.65;0.90;;;12.70;99.90;;;;;;4196931;28;20063;-74
2022/06/09 04:54:01;;;;;;;2.65;1.17;;;12.70;99.90;;;;;;4195997;28;20112;-73
2022/06/09 04:56:03;;;;;;;3.10;1.05;;;12.70;99.90;;;;;;4196975;28;20057;-74
2022/06/09 04:58:05;;;;;;;4.82;1.13;;;12.70;99.90;;;;;;4197749;28;20060;-74
2022/06/09 05:00:10;;;;;;;2.90;1.00;;;12.70;99.90;;;;;;4197630;28;20065;-74
2022/06/09 05:02:12;;;;;;;3.28;0.90;;;12.70;99.90;;;;;;4195551;28;20061;-74
2022/06/09 05:04:14;;;;;;;2.13;1.02;;;12.70;99.90;;;;;;4197492;28;20175;-74
2022/06/09 05:06:18;;;;;;;3.63;1.00;;;12.70;99.90;;;;;;4196178;28;20064;-75
2022/06/09 05:08:20;;;;;;;4.03;1.30;;;12.70;99.90;;;;;;4198228;28;20053;-74
2022/06/09 05:10:22;;;;;;;4.72;1.70;;;12.80;99.90;;;;;;4197129;28;20064;-75
2022/06/09 05:12:23;;;;;;;1.10;0.98;;;12.80;99.90;;;;;;4195467;28;20068;-74
2022/06/09 05:14:25;;;;;;;2.25;0.90;;;12.80;99.90;;;;;;4196859;28;20049;-74
2022/06/09 05:16:27;;;;;;;2.60;1.10;;;12.80;99.90;;;;;;4196431;28;20092;-74
2022/06/09 05:18:30;;;;;;;4.97;1.20;;;12.90;99.90;;;;;;4195965;28;20057;-74
2022/06/09 05:20:32;;;;;;;2.22;0.80;;;12.90;99.90;;;;;;4196738;28;20152;-74
2022/06/09 05:22:34;;;;;;;2.67;0.98;;;12.90;99.90;;;;;;4195796;28;20155;-74
2022/06/09 05:24:35;;;;;;;2.95;0.80;;;12.80;99.90;;;;;;4197802;28;20154;-75
2022/06/09 05:26:37;;;;;;;2.67;0.98;;;12.80;99.90;;;;;;4197184;28;20064;-75
2022/06/09 05:28:39;;;;;;;1.45;1.10;;;12.90;99.90;;;;;;4196966;28;20600;-75
2022/06/09 05:30:41;;;;;;;2.70;1.00;;;13.00;99.90;;;;;;4194895;28;20047;-75
2022/06/09 05:32:43;;;;;;;2.90;0.77;;;13.10;99.90;;;;;;4196360;28;20053;-74
2022/06/09 05:34:44;;;;;;;1.75;0.60;;;13.10;99.90;;;;;;4196869;28;20152;-74
2022/06/09 05:36:46;;;;;;;1.80;0.93;;;13.20;99.90;;;;;;4196833;28;20099;-75
2022/06/09 05:45:55;;;;;;;4.18;1.02;;;13.90;99.90;;;;;;4196588;28;20677;-74
2022/06/09 05:47:56;;;;;;;5.13;0.95;;;14.00;99.90;;;;;;4196908;28;20096;-75
2022/06/09 05:49:58;;;;;;;2.70;0.70;;;14.10;99.90;;;;;;4196855;28;20055;-75
2022/06/09 05:52:00;;;;;;;3.03;0.93;;;14.30;99.90;;;;;;4196318;28;20091;-74
2022/06/09 05:54:03;;;;;;;2.03;0.80;;;14.30;99.90;;;;;;4196586;28;20053;-75
2022/06/09 05:56:06;;;;;;;2.33;0.80;;;14.30;99.90;;;;;;4197237;28;20096;-75
2022/06/09 05:58:07;;;;;;;2.22;0.70;;;14.30;99.90;;;;;;4195530;28;20053;-76
2022/06/09 06:00:10;;;;;;;2.28;0.80;;;14.40;99.90;;;;;;4196368;28;20057;-75
2022/06/09 06:02:12;;;;;;;1.38;0.70;;;14.50;99.90;;;;;;4195707;28;20127;-73
2022/06/09 06:04:14;;;;;;;1.65;1.05;;;14.50;99.90;;;;;;4199975;28;20057;-75
2022/06/09 06:06:34;;;;;;;2.30;0.75;;;14.30;99.90;;;;;;4198739;28;20056;-75
2022/06/09 06:08:43;;;;;;;3.05;0.85;;;14.30;99.90;;;;;;4199675;28;20127;-75
2022/06/09 06:10:44;;;;;;;6.38;0.77;;;14.20;99.90;;;;;;4200044;28;20041;-75
2022/06/09 06:12:46;;;;;;;2.03;0.88;;;14.10;99.90;;;;;;4198470;28;20055;-75
2022/06/09 06:14:48;;;;;;;3.60;0.88;;;14.10;99.90;;;;;;4200515;28;20063;-73
2022/06/09 06:16:50;;;;;;;3.92;0.90;;;14.10;99.90;;;;;;4199712;28;20056;-75
2022/06/09 06:18:52;;;;;;;4.43;0.95;;;14.10;99.90;;;;;;4199633;28;20056;-74
2022/06/09 06:20:55;;;;;;;3.83;1.00;;;14.20;99.90;;;;;;4199746;28;20049;-74
2022/06/09 06:22:57;;;;;;;4.75;1.02;;;14.30;99.90;;;;;;4197827;28;20057;-74
2022/06/09 06:24:59;;;;;;;15.48;3.10;;;14.50;99.90;;;;;;4199663;28;20792;-74
2022/06/09 06:27:01;;;;;;;4.38;1.15;;;14.60;99.90;;;;;;4201262;28;20756;-74
2022/06/09 06:29:05;;;;;;;7.38;2.75;;;14.50;99.90;;;;;;4203712;28;20058;-75
2022/06/09 06:31:07;;;;;;;3.85;1.33;;;14.40;99.90;;;;;;4198502;28;20924;-75
2022/06/09 06:33:09;;;;;;;7.18;1.40;;;14.50;99.90;;;;;;4199468;28;20116;-75
2022/06/09 06:35:11;;;;;;;3.78;1.17;;;14.60;99.90;;;;;;4200587;28;20151;-74
2022/06/09 06:37:16;;;;;;;2.90;1.20;;;15.00;99.90;;;;;;4197158;28;20357;-74
2022/06/09 06:39:18;;;;;;;6.15;1.02;;;15.00;99.90;;;;;;4198029;28;20177;-73
2022/06/09 06:41:20;;;;;;;5.53;1.77;;;15.00;99.90;;;;;;4197055;28;20863;-74
2022/06/09 06:43:22;;;;;;;6.35;1.50;;;15.10;99.90;;;;;;4196474;28;20053;-73
2022/06/09 06:45:25;;;;;;;3.78;1.83;;;15.10;99.90;;;;;;4195963;28;20057;-73
2022/06/09 06:47:28;;;;;;;3.25;1.25;;;15.00;99.90;;;;;;4200729;28;20053;-73
2022/06/09 06:49:30;;;;;;;4.13;1.20;;;14.80;99.90;;;;;;4199593;28;20067;-73
2022/06/09 06:51:32;;;;;;;2.90;1.23;;;14.80;99.90;;;;;;4197574;28;20061;-74
2022/06/09 06:53:35;;;;;;;2.72;1.10;;;14.80;99.90;;;;;;4196417;28;20107;-75
2022/06/09 06:55:37;;;;;;;5.72;2.15;;;14.90;99.90;;;;;;4190600;28;20061;-75
2022/06/09 06:57:38;;;;;;;2.97;0.90;;;15.20;99.90;;;;;;4198393;28;20858;-75
2022/06/09 06:59:41;;;;;;;2.80;2.30;;;15.40;98.30;;;;;;4198793;28;20100;-76
2022/06/09 07:01:43;;;;;;;3.65;1.45;;;15.60;98.60;;;;;;4199926;28;20045;-74
2022/06/09 07:03:46;;;;;;;4.90;1.55;;;15.60;97.30;;;;;;4198855;28;20180;-74
2022/06/09 07:05:48;;;;;;;4.47;0.63;;;15.50;96.30;;;;;;4198527;28;20045;-73
2022/06/09 07:07:50;;;;;;;8.93;3.08;;;15.30;95.60;;;;;;4198472;28;20063;-75
2022/06/09 07:09:52;;;;;;;2.90;0.90;;;15.10;96.30;;;;;;4198956;28;20057;-74
2022/06/09 07:11:53;;;;;;;5.18;2.70;;;15.00;96.30;;;;;;4197034;28;20159;-74
2022/06/09 07:13:55;;;;;;;6.40;1.60;;;14.90;96.10;;;;;;4197885;28;20056;-74
2022/06/09 07:15:57;;;;;;;10.23;1.98;;;15.00;96.90;;;;;;4197636;28;20168;-74
2022/06/09 07:18:02;;;;;;;6.43;0.90;;;15.10;97.50;;;;;;4197658;28;20056;-74
2022/06/09 07:20:05;;;;;;;3.97;1.08;;;15.30;96.80;;;;;;4199220;28;20057;-75
2022/06/09 07:22:07;;;;;;;3.78;1.00;;;15.30;95.60;;;;;;4196556;28;20057;-74
2022/06/09 07:24:09;;;;;;;8.77;2.65;;;15.40;95.40;;;;;;4197283;28;20100;-74
2022/06/09 07:26:11;;;;;;;4.72;1.73;;;15.50;96.30;;;;;;4197526;28;20060;-73
2022/06/09 07:28:13;;;;;;;3.85;1.40;;;15.60;95.60;;;;;;4200613;28;20052;-74
2022/06/09 07:30:15;;;;;;;4.53;1.70;;;15.70;95.80;;;;;;4199640;28;20109;-74
2022/06/09 07:32:18;;;;;;;1.52;0.73;;;15.80;95.60;;;;;;4198708;28;20056;-73
2022/06/09 07:34:20;;;;;;;5.35;1.40;;;15.70;94.70;;;;;;4198300;28;20061;-74
2022/06/09 07:36:24;;;;;;;2.92;0.80;;;15.70;94.50;;;;;;4198913;28;20064;-74
2022/06/09 07:38:27;;;;;;;3.55;1.08;;;15.70;94.50;;;;;;4197518;28;20057;-73
2022/06/09 07:40:29;;;;;;;4.00;1.20;;;15.70;94.90;;;;;;4197577;28;20087;-74
2022/06/09 07:42:31;;;;;;;3.30;1.23;;;15.80;94.30;;;;;;4201965;28;20061;-73
2022/06/09 07:44:33;;;;;;;5.60;1.17;;;15.90;94.50;;;;;;4201857;28;20147;-72
2022/06/09 07:46:36;;;;;;;6.47;0.80;;;15.80;92.60;;;;;;4197969;28;20057;-73
2022/06/09 07:48:37;;;;;;;2.92;1.17;;;15.70;93.30;;;;;;4198529;28;20092;-74
2022/06/09 07:50:51;;;;;;;5.00;1.73;;;15.70;93.40;;;;;;4198177;28;20164;-74
2022/06/09 07:52:52;;;;;;;1.98;1.02;;;15.70;94.30;;;;;;4197217;28;20055;-74
2022/06/09 07:54:54;;;;;;;3.72;1.67;;;15.80;94.00;;;;;;4199603;28;20068;-73
2022/06/09 07:56:59;;;;;;;5.78;2.05;;;15.80;92.70;;;;;;4198072;28;20091;-73
2022/06/09 07:59:03;;;;;;;2.45;1.27;;;15.90;93.30;;;;;;4198561;28;20093;-74
2022/06/09 08:01:05;;;;;;;4.47;1.15;;;16.00;91.70;;;;;;4197226;28;20061;-72
2022/06/09 08:03:08;;;;;;;2.72;1.13;;;16.10;91.10;;;;;;4197965;28;20132;-74
2022/06/09 08:05:12;;;;;;;4.47;1.63;;;16.10;90.80;;;;;;4197649;28;20061;-71
2022/06/09 08:07:14;;;;;;;5.03;1.10;;;16.20;90.60;;;;;;4198473;28;20160;-72
2022/06/09 08:09:16;;;;;;;4.00;0.65;;;16.20;90.50;;;;;;4198475;28;20052;-72
2022/06/09 08:11:18;;;;;;;2.70;0.50;;;16.30;91.00;;;;;;4198488;28;20095;-73
2022/06/09 08:13:19;;;;;;;5.22;1.00;;;16.40;90.00;;;;;;4196564;28;20171;-74
2022/06/09 08:15:24;;;;;;;1.63;0.63;;;16.50;88.30;;;;;;4197864;28;20100;-72
2022/06/09 08:17:26;;;;;;;3.10;0.82;;;16.50;89.00;;;;;;4198275;28;20152;-74
2022/06/09 08:19:27;;;;;;;6.20;0.98;;;16.60;87.80;;;;;;4196686;28;20076;-73
2022/06/09 08:21:29;;;;;;;2.50;0.63;;;16.80;88.40;;;;;;4194837;28;20807;-74
2022/06/09 08:23:48;;;;;;;3.08;0.70;;;17.10;88.80;;;;;;4198139;28;20045;-74
2022/06/09 08:25:54;;;;;;;4.55;1.17;;;17.20;86.00;;;;;;4198140;28;20179;-73
2022/06/09 08:27:57;;;;;;;2.33;0.90;;;17.20;86.40;;;;;;4198405;28;20067;-73
2022/06/09 08:29:58;;;;;;;3.50;0.70;;;17.30;87.40;;;;;;4199168;28;20045;-73
2022/06/09 08:32:00;;;;;;;2.13;0.77;;;17.40;84.10;;;;;;4197225;28;20148;-72
2022/06/09 08:34:02;;;;;;;1.92;0.80;;;17.60;84.20;;;;;;4197594;28;20048;-71
2022/06/09 08:36:04;;;;;;;1.60;0.43;;;17.60;83.40;;;;;;4201473;28;20061;-72
2022/06/09 08:38:07;;;;;;;3.50;0.50;;;17.50;82.30;;;;;;4198416;28;20059;-72
2022/06/09 08:40:14;;;;;;;1.80;0.50;;;17.30;84.50;;;;;;4197212;28;20096;-72
2022/06/09 08:42:34;;;;;;;3.17;0.50;;;17.20;85.00;;;;;;4196152;28;20099;-72
2022/06/09 08:44:39;;;;;;;3.35;1.17;;;17.00;85.80;;;;;;4195722;28;20053;-73
2022/06/09 08:46:49;;;;;;;1.85;0.77;;;16.90;86.60;;;;;;4196288;28;20172;-72
2022/06/09 08:48:55;;;;;;;3.65;1.75;;;17.00;85.80;;;;;;4198664;28;20095;-74
2022/06/09 08:51:06;;;;;;;4.47;2.47;;;17.10;85.40;;;;;;4199747;28;20115;-72
2022/06/09 08:53:13;;;;;;;2.90;2.30;;;17.30;86.90;;;;;;4199144;28;20061;-73
2022/06/09 08:55:42;;;;;;;3.83;1.98;;;17.40;84.10;;;;;;4196477;28;20803;-72
2022/06/09 08:57:45;;;;;;;7.22;1.85;;;17.40;83.90;;;;;;4197381;28;20049;-72
2022/06/09 08:59:54;;;;;;;4.30;3.50;;;17.10;83.30;;;;;;4197143;28;20052;-71
2022/06/09 09:02:03;;;;;;;4.53;1.27;;;16.80;83.80;;;;;;4195036;28;20053;-71
2022/06/09 09:04:22;;;;;;;1.67;1.02;;;16.80;83.70;;;;;;4197254;28;20096;-72
2022/06/09 09:06:29;;;;;;;1.92;0.80;;;16.90;82.20;;;;;;4194957;28;20061;-72
2022/06/09 09:08:31;;;;;;;6.97;1.30;;;16.90;81.70;;;;;;4197335;28;20053;-72
2022/06/09 09:10:55;;;;;;;2.92;0.63;;;17.10;81.70;;;;;;4196986;28;20057;-74
2022/06/09 09:13:15;;;;;;;1.35;0.47;;;17.10;82.40;;;;;;4192893;28;20053;-74
2022/06/09 09:15:17;;;;;;;4.15;2.05;;;17.40;80.50;;;;;;4196400;28;20079;-76
2022/06/09 09:17:42;;;;;;;4.68;1.50;;;17.50;81.90;;;;;;4194687;28;20096;-74
2022/06/09 09:20:04;;;;;;;2.78;2.20;;;17.50;79.70;;;;;;4196296;28;20661;-73
2022/06/09 09:22:18;;;;;;;4.68;2.17;;;17.50;80.50;;;;;;4194812;28;20062;-72
2022/06/09 09:24:33;;;;;;;1.55;0.40;;;17.60;78.30;;;;;;4198561;28;20060;-75
2022/06/09 09:27:03;;;;;;;3.13;1.30;;;17.50;79.10;;;;;;4196758;28;20860;-73
2022/06/09 09:29:36;;;;;;;4.03;1.08;;;17.40;79.10;;;;;;4195509;28;20045;-74
2022/06/09 09:31:59;;;;;;;1.73;0.52;;;17.70;77.30;;;;;;4195531;28;20053;-74
2022/06/09 09:34:04;;;;;;;5.25;2.30;;;17.60;78.80;;;;;;4197733;28;20195;-73
2022/06/09 09:36:14;;;;;;;3.97;2.90;;;17.50;78.90;;;;;;4196306;28;20061;-74
2022/06/09 09:38:19;;;;;;;3.05;2.53;;;17.30;78.80;;;;;;4199719;28;20100;-75
2022/06/09 09:40:32;;;;;;;2.72;1.00;;;17.30;79.10;;;;;;4200225;28;20056;-74
2022/06/09 09:42:36;;;;;;;2.75;0.60;;;17.40;78.30;;;;;;4197634;28;20123;-74
2022/06/09 09:44:38;;;;;;;1.38;0.50;;;17.80;77.50;;;;;;4200579;28;20152;-74
2022/06/09 09:46:41;;;;;;;1.25;0.50;;;18.10;75.90;;;;;;4199281;28;20049;-74
2022/06/09 09:48:43;;;;;;;3.78;1.20;;;18.20;75.40;;;;;;4199992;28;20056;-74
2022/06/09 09:50:55;;;;;;;3.90;0.95;;;18.40;74.70;;;;;;4198414;28;20102;-74
2022/06/09 09:53:04;;;;;;;4.00;0.80;;;18.40;77.30;;;;;;4199498;28;20063;-73
2022/06/09 09:55:33;;;;;;;0.98;0.30;;;18.50;76.70;;;;;;4202823;28;20053;-73
2022/06/09 09:57:35;;;;;;;3.47;0.90;;;18.60;73.30;;;;;;4207321;28;20088;-76
2022/06/09 09:59:51;;;;;;;1.00;0.40;;;18.20;72.90;;;;;;4210939;28;20483;-74
2022/06/09 10:09:36;;;;;;;4.90;0.50;;;18.30;75.30;;;;;;4209764;28;20036;-74
2022/06/09 10:12:02;;;;;;;1.42;0.60;;;18.70;73.10;;;;;;4203032;28;20099;-74
2022/06/09 10:14:17;;;;;;;1.75;0.65;;;18.60;74.70;;;;;;4205212;28;20057;-73
2022/06/09 10:16:38;;;;;;;1.45;0.50;;;18.50;75.00;;;;;;4206680;28;20052;-73
2022/06/09 10:19:03;;;;;;;4.90;0.60;;;18.20;76.60;;;;;;4211076;28;20040;-75
2022/06/09 10:21:22;;;;;;;2.17;0.60;;;18.00;74.40;;;;;;4208838;28;20040;-75
2022/06/09 10:23:42;;;;;;;1.52;0.40;;;17.80;74.60;;;;;;4205637;28;20061;-74
2022/06/09 10:26:12;;;;;;;0.90;0.50;;;17.70;75.40;;;;;;4204474;28;20131;-75
2022/06/09 10:28:26;;;;;;;1.85;0.70;;;17.80;76.00;;;;;;4195962;28;20054;-73
2022/06/09 10:30:39;;;;;;;4.13;0.50;;;18.00;74.90;;;;;;4209520;28;20828;-75
2022/06/09 10:32:41;;;;;;;0.85;0.30;;;18.10;74.80;;;;;;4209139;28;20057;-73
2022/06/09 10:35:13;;;;;;;1.25;0.55;;;18.10;73.60;;;;;;4202833;28;20099;-72
2022/06/09 10:37:34;;;;;;;3.53;0.65;;;18.30;73.30;;;;;;4209703;28;20088;-74
2022/06/09 10:39:49;;;;;;;3.70;0.57;;;18.50;71.00;;;;;;4206384;28;20068;-73
2022/06/09 10:41:59;;;;;;;1.05;0.40;;;18.80;71.80;;;;;;4203666;28;20904;-73
2022/06/09 10:44:14;;;;;;;4.03;0.55;;;18.90;73.00;;;;;;4195653;28;20052;-73
2022/06/09 10:55:14;;;;;;;1.45;0.60;;;18.90;70.50;;;;;;4206698;28;20061;-73
2022/06/09 10:57:18;;;;;;;1.42;0.50;;;19.00;65.40;;;;;;4204859;28;20080;-73
2022/06/09 10:59:46;;;;;;;1.48;0.25;;;19.00;66.00;;;;;;4207571;28;20064;-74
2022/06/09 11:01:48;;;;;;;1.80;0.55;;;19.20;65.80;;;;;;4180307;28;20049;-72
2022/06/09 11:03:51;;;;;;;3.65;0.75;;;19.20;67.20;;;;;;4204192;28;20112;-74
2022/06/09 11:06:33;;;;;;;3.10;0.57;;;19.30;66.10;;;;;;4207362;28;20890;-74
2022/06/09 11:08:52;;;;;;;1.95;0.60;;;19.50;68.90;;;;;;4151986;28;20105;-74
2022/06/09 11:11:22;;;;;;;3.33;0.90;;;19.50;68.20;;;;;;4189753;28;20879;-75
2022/06/09 11:13:48;;;;;;;2.40;0.43;;;19.20;68.40;;;;;;4207812;28;20056;-75
2022/06/09 11:16:21;;;;;;;3.25;0.40;;;18.70;66.80;;;;;;4204610;28;20065;-73
2022/06/09 11:18:35;;;;;;;1.92;0.60;;;18.60;70.00;;;;;;4207534;28;20171;-72
2022/06/09 11:21:18;;;;;;;4.20;0.50;;;18.90;67.80;;;;;;4210232;28;20364;-73
2022/06/09 11:23:29;;;;;;;3.58;0.57;;;19.10;67.30;;;;;;4152758;28;20091;-73